<?xml version="1.0" encoding="UTF-8" standalone="no" ?>
<gpx xmlns="http://www.topografix.com/GPX/1/1" xmlns:xsi="http://www.w3.org/2001/XMLSchema-instance" xsi:schemaLocation="http://www.topografix.com/GPX/1/1 http://www.topografix.com/GPX/1/1/gpx.xsd" version="1.1" creator="VisuGPX - https://www.visugpx.com">
  <metadata>
    <name>GR4 de Simiane la Rotonde (04) à Céreste (04)</name>
    <desc><![CDATA[Rando du hameau de Berre à Manosque
2ème journée = le 18 juin 2012]]></desc>
  </metadata>
  <trk>
    <name><![CDATA[ACTIVE LOG151658]]></name>
    <trkseg>
      <trkpt lat="43.87128" lon="5.61737">
        <ele>448.491</ele>
        <time>2012-06-18T13:16:57Z</time>
      </trkpt>
      <trkpt lat="43.87126" lon="5.61736">
        <ele>449.275</ele>
        <time>2012-06-18T13:17:02Z</time>
      </trkpt>
      <trkpt lat="43.87127" lon="5.6173">
        <ele>449.145</ele>
        <time>2012-06-18T13:17:34Z</time>
      </trkpt>
      <trkpt lat="43.87123" lon="5.61734">
        <ele>448.708</ele>
        <time>2012-06-18T13:18:50Z</time>
      </trkpt>
      <trkpt lat="43.87124" lon="5.61734">
        <ele>448.983</ele>
        <time>2012-06-18T13:19:22Z</time>
      </trkpt>
      <trkpt lat="43.87121" lon="5.61738">
        <ele>449.023</ele>
        <time>2012-06-18T13:19:50Z</time>
      </trkpt>
      <trkpt lat="43.87125" lon="5.61735">
        <ele>449.755</ele>
        <time>2012-06-18T13:20:26Z</time>
      </trkpt>
      <trkpt lat="43.87125" lon="5.61731">
        <ele>450.013</ele>
        <time>2012-06-18T13:20:59Z</time>
      </trkpt>
      <trkpt lat="43.87125" lon="5.61727">
        <ele>449.279</ele>
        <time>2012-06-18T13:21:31Z</time>
      </trkpt>
      <trkpt lat="43.87126" lon="5.61726">
        <ele>449.257</ele>
        <time>2012-06-18T13:22:32Z</time>
      </trkpt>
      <trkpt lat="43.87127" lon="5.61723">
        <ele>449.122</ele>
        <time>2012-06-18T13:22:53Z</time>
      </trkpt>
      <trkpt lat="43.87129" lon="5.61722">
        <ele>449.518</ele>
        <time>2012-06-18T13:23:16Z</time>
      </trkpt>
      <trkpt lat="43.87126" lon="5.6173">
        <ele>450.232</ele>
        <time>2012-06-18T13:25:58Z</time>
      </trkpt>
      <trkpt lat="43.87126" lon="5.6173">
        <ele>447.667</ele>
        <time>2012-06-18T13:26:14Z</time>
      </trkpt>
      <trkpt lat="43.87126" lon="5.61729">
        <ele>448.842</ele>
        <time>2012-06-18T13:26:16Z</time>
      </trkpt>
      <trkpt lat="43.87125" lon="5.61729">
        <ele>450.52</ele>
        <time>2012-06-18T13:26:27Z</time>
      </trkpt>
      <trkpt lat="43.87126" lon="5.6173">
        <ele>450.05</ele>
        <time>2012-06-18T13:26:48Z</time>
      </trkpt>
      <trkpt lat="43.87119" lon="5.61722">
        <ele>449.869</ele>
        <time>2012-06-18T13:27:18Z</time>
      </trkpt>
      <trkpt lat="43.87105" lon="5.61718">
        <ele>450.354</ele>
        <time>2012-06-18T13:27:38Z</time>
      </trkpt>
      <trkpt lat="43.87113" lon="5.61716">
        <ele>450.607</ele>
        <time>2012-06-18T13:27:52Z</time>
      </trkpt>
      <trkpt lat="43.87112" lon="5.61709">
        <ele>451.596</ele>
        <time>2012-06-18T13:28:06Z</time>
      </trkpt>
      <trkpt lat="43.87112" lon="5.61698">
        <ele>453.471</ele>
        <time>2012-06-18T13:28:20Z</time>
      </trkpt>
      <trkpt lat="43.8711" lon="5.6169">
        <ele>455.613</ele>
        <time>2012-06-18T13:28:40Z</time>
      </trkpt>
      <trkpt lat="43.87106" lon="5.6168">
        <ele>457.472</ele>
        <time>2012-06-18T13:28:58Z</time>
      </trkpt>
      <trkpt lat="43.87104" lon="5.6167">
        <ele>458.442</ele>
        <time>2012-06-18T13:29:14Z</time>
      </trkpt>
      <trkpt lat="43.87106" lon="5.61648">
        <ele>460.631</ele>
        <time>2012-06-18T13:29:35Z</time>
      </trkpt>
      <trkpt lat="43.87097" lon="5.61631">
        <ele>462.597</ele>
        <time>2012-06-18T13:29:55Z</time>
      </trkpt>
      <trkpt lat="43.87088" lon="5.61612">
        <ele>464.022</ele>
        <time>2012-06-18T13:30:15Z</time>
      </trkpt>
      <trkpt lat="43.8708" lon="5.61591">
        <ele>465.791</ele>
        <time>2012-06-18T13:30:35Z</time>
      </trkpt>
      <trkpt lat="43.87078" lon="5.61578">
        <ele>466.117</ele>
        <time>2012-06-18T13:30:45Z</time>
      </trkpt>
      <trkpt lat="43.87071" lon="5.61537">
        <ele>464.58</ele>
        <time>2012-06-18T13:31:16Z</time>
      </trkpt>
      <trkpt lat="43.87077" lon="5.61501">
        <ele>464.277</ele>
        <time>2012-06-18T13:31:43Z</time>
      </trkpt>
      <trkpt lat="43.87084" lon="5.61467">
        <ele>464.663</ele>
        <time>2012-06-18T13:32:07Z</time>
      </trkpt>
      <trkpt lat="43.8709" lon="5.61441">
        <ele>464.824</ele>
        <time>2012-06-18T13:32:28Z</time>
      </trkpt>
      <trkpt lat="43.87093" lon="5.61411">
        <ele>465.221</ele>
        <time>2012-06-18T13:32:49Z</time>
      </trkpt>
      <trkpt lat="43.87093" lon="5.61403">
        <ele>465.355</ele>
        <time>2012-06-18T13:32:54Z</time>
      </trkpt>
      <trkpt lat="43.87096" lon="5.61371">
        <ele>466.854</ele>
        <time>2012-06-18T13:33:15Z</time>
      </trkpt>
      <trkpt lat="43.87109" lon="5.61343">
        <ele>467.617</ele>
        <time>2012-06-18T13:33:38Z</time>
      </trkpt>
      <trkpt lat="43.87125" lon="5.61315">
        <ele>468.559</ele>
        <time>2012-06-18T13:34:02Z</time>
      </trkpt>
      <trkpt lat="43.87139" lon="5.6128">
        <ele>468.29</ele>
        <time>2012-06-18T13:34:28Z</time>
      </trkpt>
      <trkpt lat="43.8714" lon="5.6124">
        <ele>467.238</ele>
        <time>2012-06-18T13:34:55Z</time>
      </trkpt>
      <trkpt lat="43.87134" lon="5.61201">
        <ele>467.02</ele>
        <time>2012-06-18T13:35:21Z</time>
      </trkpt>
      <trkpt lat="43.87131" lon="5.61157">
        <ele>467.41</ele>
        <time>2012-06-18T13:35:51Z</time>
      </trkpt>
      <trkpt lat="43.8712" lon="5.61115">
        <ele>467.279</ele>
        <time>2012-06-18T13:36:21Z</time>
      </trkpt>
      <trkpt lat="43.8711" lon="5.61076">
        <ele>467.257</ele>
        <time>2012-06-18T13:36:49Z</time>
      </trkpt>
      <trkpt lat="43.8711" lon="5.61036">
        <ele>467.268</ele>
        <time>2012-06-18T13:37:16Z</time>
      </trkpt>
      <trkpt lat="43.87103" lon="5.60999">
        <ele>467.087</ele>
        <time>2012-06-18T13:37:42Z</time>
      </trkpt>
      <trkpt lat="43.87093" lon="5.60957">
        <ele>465.89</ele>
        <time>2012-06-18T13:38:12Z</time>
      </trkpt>
      <trkpt lat="43.87083" lon="5.60913">
        <ele>463.979</ele>
        <time>2012-06-18T13:38:44Z</time>
      </trkpt>
      <trkpt lat="43.87075" lon="5.60871">
        <ele>462.638</ele>
        <time>2012-06-18T13:39:14Z</time>
      </trkpt>
      <trkpt lat="43.87072" lon="5.60829">
        <ele>460.933</ele>
        <time>2012-06-18T13:39:45Z</time>
      </trkpt>
      <trkpt lat="43.87065" lon="5.60801">
        <ele>457.875</ele>
        <time>2012-06-18T13:40:06Z</time>
      </trkpt>
      <trkpt lat="43.87052" lon="5.60767">
        <ele>455.997</ele>
        <time>2012-06-18T13:40:35Z</time>
      </trkpt>
      <trkpt lat="43.8705" lon="5.60763">
        <ele>455.829</ele>
        <time>2012-06-18T13:40:38Z</time>
      </trkpt>
      <trkpt lat="43.87034" lon="5.60742">
        <ele>452.52</ele>
        <time>2012-06-18T13:41:01Z</time>
      </trkpt>
      <trkpt lat="43.87013" lon="5.60734">
        <ele>449.449</ele>
        <time>2012-06-18T13:41:25Z</time>
      </trkpt>
      <trkpt lat="43.86987" lon="5.60733">
        <ele>446.341</ele>
        <time>2012-06-18T13:41:53Z</time>
      </trkpt>
      <trkpt lat="43.86979" lon="5.60733">
        <ele>445.052</ele>
        <time>2012-06-18T13:42:01Z</time>
      </trkpt>
      <trkpt lat="43.8696" lon="5.6073">
        <ele>441.977</ele>
        <time>2012-06-18T13:42:21Z</time>
      </trkpt>
      <trkpt lat="43.86938" lon="5.60718">
        <ele>438.568</ele>
        <time>2012-06-18T13:42:49Z</time>
      </trkpt>
      <trkpt lat="43.86914" lon="5.60706">
        <ele>437.236</ele>
        <time>2012-06-18T13:43:17Z</time>
      </trkpt>
      <trkpt lat="43.86887" lon="5.60703">
        <ele>435.927</ele>
        <time>2012-06-18T13:43:41Z</time>
      </trkpt>
      <trkpt lat="43.86865" lon="5.60703">
        <ele>433.711</ele>
        <time>2012-06-18T13:44:04Z</time>
      </trkpt>
      <trkpt lat="43.8684" lon="5.60707">
        <ele>432.134</ele>
        <time>2012-06-18T13:44:32Z</time>
      </trkpt>
      <trkpt lat="43.86837" lon="5.60713">
        <ele>432.264</ele>
        <time>2012-06-18T13:45:10Z</time>
      </trkpt>
      <trkpt lat="43.86833" lon="5.60709">
        <ele>432.159</ele>
        <time>2012-06-18T13:45:40Z</time>
      </trkpt>
      <trkpt lat="43.8681" lon="5.60699">
        <ele>431.718</ele>
        <time>2012-06-18T13:46:05Z</time>
      </trkpt>
      <trkpt lat="43.86807" lon="5.60701">
        <ele>431.27</ele>
        <time>2012-06-18T13:46:12Z</time>
      </trkpt>
      <trkpt lat="43.86786" lon="5.60713">
        <ele>430.31</ele>
        <time>2012-06-18T13:46:35Z</time>
      </trkpt>
      <trkpt lat="43.86763" lon="5.60725">
        <ele>430.111</ele>
        <time>2012-06-18T13:46:59Z</time>
      </trkpt>
      <trkpt lat="43.86743" lon="5.60733">
        <ele>429.706</ele>
        <time>2012-06-18T13:47:19Z</time>
      </trkpt>
      <trkpt lat="43.86717" lon="5.60737">
        <ele>430.157</ele>
        <time>2012-06-18T13:47:42Z</time>
      </trkpt>
      <trkpt lat="43.86693" lon="5.60742">
        <ele>430.692</ele>
        <time>2012-06-18T13:48:06Z</time>
      </trkpt>
      <trkpt lat="43.86663" lon="5.60745">
        <ele>430.005</ele>
        <time>2012-06-18T13:48:35Z</time>
      </trkpt>
      <trkpt lat="43.86644" lon="5.60747">
        <ele>429.2</ele>
        <time>2012-06-18T13:48:59Z</time>
      </trkpt>
      <trkpt lat="43.86632" lon="5.60752">
        <ele>427.188</ele>
        <time>2012-06-18T13:49:15Z</time>
      </trkpt>
      <trkpt lat="43.86618" lon="5.60754">
        <ele>425.395</ele>
        <time>2012-06-18T13:49:32Z</time>
      </trkpt>
      <trkpt lat="43.86604" lon="5.60749">
        <ele>424.775</ele>
        <time>2012-06-18T13:49:50Z</time>
      </trkpt>
      <trkpt lat="43.86591" lon="5.60736">
        <ele>423.178</ele>
        <time>2012-06-18T13:50:10Z</time>
      </trkpt>
      <trkpt lat="43.86577" lon="5.60722">
        <ele>420.917</ele>
        <time>2012-06-18T13:50:30Z</time>
      </trkpt>
      <trkpt lat="43.86559" lon="5.60711">
        <ele>419.611</ele>
        <time>2012-06-18T13:50:51Z</time>
      </trkpt>
      <trkpt lat="43.86549" lon="5.60704">
        <ele>419.52</ele>
        <time>2012-06-18T13:51:03Z</time>
      </trkpt>
      <trkpt lat="43.86536" lon="5.60692">
        <ele>418.29</ele>
        <time>2012-06-18T13:51:22Z</time>
      </trkpt>
      <trkpt lat="43.8652" lon="5.60678">
        <ele>416.398</ele>
        <time>2012-06-18T13:51:43Z</time>
      </trkpt>
      <trkpt lat="43.86504" lon="5.60664">
        <ele>415.286</ele>
        <time>2012-06-18T13:52:04Z</time>
      </trkpt>
      <trkpt lat="43.86491" lon="5.60653">
        <ele>414.101</ele>
        <time>2012-06-18T13:52:20Z</time>
      </trkpt>
      <trkpt lat="43.86482" lon="5.60647">
        <ele>413.522</ele>
        <time>2012-06-18T13:52:35Z</time>
      </trkpt>
      <trkpt lat="43.86466" lon="5.60637">
        <ele>412.082</ele>
        <time>2012-06-18T13:52:53Z</time>
      </trkpt>
      <trkpt lat="43.86459" lon="5.60631">
        <ele>411.952</ele>
        <time>2012-06-18T13:53:01Z</time>
      </trkpt>
      <trkpt lat="43.86447" lon="5.60608">
        <ele>411.5</ele>
        <time>2012-06-18T13:53:20Z</time>
      </trkpt>
      <trkpt lat="43.86436" lon="5.60587">
        <ele>409.886</ele>
        <time>2012-06-18T13:53:39Z</time>
      </trkpt>
      <trkpt lat="43.86423" lon="5.60575">
        <ele>408.692</ele>
        <time>2012-06-18T13:53:56Z</time>
      </trkpt>
      <trkpt lat="43.86421" lon="5.60575">
        <ele>408.691</ele>
        <time>2012-06-18T13:53:58Z</time>
      </trkpt>
      <trkpt lat="43.86401" lon="5.60565">
        <ele>407.91</ele>
        <time>2012-06-18T13:54:19Z</time>
      </trkpt>
      <trkpt lat="43.86395" lon="5.60561">
        <ele>407.504</ele>
        <time>2012-06-18T13:54:26Z</time>
      </trkpt>
      <trkpt lat="43.86379" lon="5.60552">
        <ele>406.196</ele>
        <time>2012-06-18T13:54:44Z</time>
      </trkpt>
      <trkpt lat="43.86368" lon="5.6054">
        <ele>404.693</ele>
        <time>2012-06-18T13:54:58Z</time>
      </trkpt>
      <trkpt lat="43.86348" lon="5.60533">
        <ele>404.828</ele>
        <time>2012-06-18T13:55:23Z</time>
      </trkpt>
      <trkpt lat="43.86328" lon="5.60522">
        <ele>402.427</ele>
        <time>2012-06-18T13:55:44Z</time>
      </trkpt>
      <trkpt lat="43.86308" lon="5.60506">
        <ele>401.179</ele>
        <time>2012-06-18T13:56:09Z</time>
      </trkpt>
      <trkpt lat="43.86288" lon="5.60498">
        <ele>398.592</ele>
        <time>2012-06-18T13:56:31Z</time>
      </trkpt>
      <trkpt lat="43.8626" lon="5.60496">
        <ele>396.957</ele>
        <time>2012-06-18T13:56:56Z</time>
      </trkpt>
      <trkpt lat="43.86226" lon="5.60488">
        <ele>395.749</ele>
        <time>2012-06-18T13:57:28Z</time>
      </trkpt>
      <trkpt lat="43.86189" lon="5.60477">
        <ele>394.447</ele>
        <time>2012-06-18T13:58:03Z</time>
      </trkpt>
      <trkpt lat="43.86157" lon="5.60467">
        <ele>392.771</ele>
        <time>2012-06-18T13:58:34Z</time>
      </trkpt>
      <trkpt lat="43.86128" lon="5.60458">
        <ele>391.427</ele>
        <time>2012-06-18T13:59:01Z</time>
      </trkpt>
      <trkpt lat="43.86096" lon="5.60455">
        <ele>389.122</ele>
        <time>2012-06-18T13:59:31Z</time>
      </trkpt>
      <trkpt lat="43.86067" lon="5.60446">
        <ele>386.697</ele>
        <time>2012-06-18T14:00:02Z</time>
      </trkpt>
      <trkpt lat="43.8604" lon="5.60434">
        <ele>385.101</ele>
        <time>2012-06-18T14:00:27Z</time>
      </trkpt>
      <trkpt lat="43.86002" lon="5.60433">
        <ele>383.858</ele>
        <time>2012-06-18T14:01:01Z</time>
      </trkpt>
      <trkpt lat="43.85972" lon="5.60427">
        <ele>382.925</ele>
        <time>2012-06-18T14:01:29Z</time>
      </trkpt>
      <trkpt lat="43.85957" lon="5.60419">
        <ele>381.99</ele>
        <time>2012-06-18T14:01:50Z</time>
      </trkpt>
      <trkpt lat="43.85943" lon="5.60404">
        <ele>381.133</ele>
        <time>2012-06-18T14:02:09Z</time>
      </trkpt>
      <trkpt lat="43.85927" lon="5.60379">
        <ele>379.633</ele>
        <time>2012-06-18T14:02:32Z</time>
      </trkpt>
      <trkpt lat="43.85908" lon="5.60335">
        <ele>380.037</ele>
        <time>2012-06-18T14:03:05Z</time>
      </trkpt>
      <trkpt lat="43.85903" lon="5.60321">
        <ele>379.638</ele>
        <time>2012-06-18T14:03:27Z</time>
      </trkpt>
      <trkpt lat="43.85899" lon="5.60278">
        <ele>378.186</ele>
        <time>2012-06-18T14:03:57Z</time>
      </trkpt>
      <trkpt lat="43.859" lon="5.60271">
        <ele>378.341</ele>
        <time>2012-06-18T14:04:02Z</time>
      </trkpt>
      <trkpt lat="43.85899" lon="5.60265">
        <ele>378.436</ele>
        <time>2012-06-18T14:04:06Z</time>
      </trkpt>
      <trkpt lat="43.85901" lon="5.60233">
        <ele>377.904</ele>
        <time>2012-06-18T14:04:29Z</time>
      </trkpt>
      <trkpt lat="43.85904" lon="5.60193">
        <ele>377.394</ele>
        <time>2012-06-18T14:04:55Z</time>
      </trkpt>
      <trkpt lat="43.85906" lon="5.60145">
        <ele>377.22</ele>
        <time>2012-06-18T14:05:26Z</time>
      </trkpt>
      <trkpt lat="43.85906" lon="5.60095">
        <ele>376.586</ele>
        <time>2012-06-18T14:05:59Z</time>
      </trkpt>
      <trkpt lat="43.85906" lon="5.60088">
        <ele>376.666</ele>
        <time>2012-06-18T14:06:04Z</time>
      </trkpt>
      <trkpt lat="43.85906" lon="5.60082">
        <ele>376.426</ele>
        <time>2012-06-18T14:06:08Z</time>
      </trkpt>
      <trkpt lat="43.85909" lon="5.60033">
        <ele>375.527</ele>
        <time>2012-06-18T14:06:40Z</time>
      </trkpt>
      <trkpt lat="43.85912" lon="5.59995">
        <ele>376.291</ele>
        <time>2012-06-18T14:07:06Z</time>
      </trkpt>
      <trkpt lat="43.85915" lon="5.5996">
        <ele>376.871</ele>
        <time>2012-06-18T14:07:32Z</time>
      </trkpt>
      <trkpt lat="43.85917" lon="5.5993">
        <ele>377.806</ele>
        <time>2012-06-18T14:07:52Z</time>
      </trkpt>
      <trkpt lat="43.8592" lon="5.5991">
        <ele>378.051</ele>
        <time>2012-06-18T14:08:08Z</time>
      </trkpt>
      <trkpt lat="43.85919" lon="5.59904">
        <ele>378.282</ele>
        <time>2012-06-18T14:08:31Z</time>
      </trkpt>
      <trkpt lat="43.85923" lon="5.59884">
        <ele>378.458</ele>
        <time>2012-06-18T14:08:48Z</time>
      </trkpt>
      <trkpt lat="43.85923" lon="5.59864">
        <ele>377.492</ele>
        <time>2012-06-18T14:09:14Z</time>
      </trkpt>
      <trkpt lat="43.85921" lon="5.59832">
        <ele>376.136</ele>
        <time>2012-06-18T14:09:39Z</time>
      </trkpt>
      <trkpt lat="43.85924" lon="5.59801">
        <ele>374.402</ele>
        <time>2012-06-18T14:10:02Z</time>
      </trkpt>
      <trkpt lat="43.85931" lon="5.59779">
        <ele>374.137</ele>
        <time>2012-06-18T14:10:25Z</time>
      </trkpt>
      <trkpt lat="43.85934" lon="5.5978">
        <ele>373.54</ele>
        <time>2012-06-18T14:10:40Z</time>
      </trkpt>
      <trkpt lat="43.85938" lon="5.59772">
        <ele>373.792</ele>
        <time>2012-06-18T14:10:56Z</time>
      </trkpt>
      <trkpt lat="43.8595" lon="5.59748">
        <ele>372.924</ele>
        <time>2012-06-18T14:11:18Z</time>
      </trkpt>
      <trkpt lat="43.85952" lon="5.59725">
        <ele>372.995</ele>
        <time>2012-06-18T14:11:35Z</time>
      </trkpt>
      <trkpt lat="43.85947" lon="5.59692">
        <ele>373.071</ele>
        <time>2012-06-18T14:11:59Z</time>
      </trkpt>
      <trkpt lat="43.8594" lon="5.59657">
        <ele>372.711</ele>
        <time>2012-06-18T14:12:24Z</time>
      </trkpt>
      <trkpt lat="43.85937" lon="5.59613">
        <ele>372.971</ele>
        <time>2012-06-18T14:12:55Z</time>
      </trkpt>
      <trkpt lat="43.85936" lon="5.59582">
        <ele>372.974</ele>
        <time>2012-06-18T14:13:17Z</time>
      </trkpt>
      <trkpt lat="43.85938" lon="5.59555">
        <ele>372.611</ele>
        <time>2012-06-18T14:13:37Z</time>
      </trkpt>
      <trkpt lat="43.85945" lon="5.59539">
        <ele>372.996</ele>
        <time>2012-06-18T14:13:59Z</time>
      </trkpt>
      <trkpt lat="43.85937" lon="5.59523">
        <ele>373.065</ele>
        <time>2012-06-18T14:14:18Z</time>
      </trkpt>
      <trkpt lat="43.85935" lon="5.59519">
        <ele>373.766</ele>
        <time>2012-06-18T14:14:21Z</time>
      </trkpt>
      <trkpt lat="43.8592" lon="5.59491">
        <ele>373.498</ele>
        <time>2012-06-18T14:14:46Z</time>
      </trkpt>
      <trkpt lat="43.85911" lon="5.5948">
        <ele>373.707</ele>
        <time>2012-06-18T14:15:04Z</time>
      </trkpt>
      <trkpt lat="43.859" lon="5.59485">
        <ele>373.096</ele>
        <time>2012-06-18T14:15:20Z</time>
      </trkpt>
      <trkpt lat="43.85892" lon="5.59492">
        <ele>373.442</ele>
        <time>2012-06-18T14:15:38Z</time>
      </trkpt>
      <trkpt lat="43.85889" lon="5.59491">
        <ele>373.215</ele>
        <time>2012-06-18T14:15:43Z</time>
      </trkpt>
      <trkpt lat="43.85861" lon="5.59481">
        <ele>373.304</ele>
        <time>2012-06-18T14:16:10Z</time>
      </trkpt>
      <trkpt lat="43.85844" lon="5.59461">
        <ele>373.877</ele>
        <time>2012-06-18T14:16:34Z</time>
      </trkpt>
      <trkpt lat="43.85827" lon="5.59442">
        <ele>374.978</ele>
        <time>2012-06-18T14:16:58Z</time>
      </trkpt>
      <trkpt lat="43.85801" lon="5.59425">
        <ele>376.628</ele>
        <time>2012-06-18T14:17:26Z</time>
      </trkpt>
      <trkpt lat="43.85778" lon="5.59415">
        <ele>378.264</ele>
        <time>2012-06-18T14:17:51Z</time>
      </trkpt>
      <trkpt lat="43.85756" lon="5.59406">
        <ele>378.756</ele>
        <time>2012-06-18T14:18:15Z</time>
      </trkpt>
      <trkpt lat="43.85749" lon="5.59396">
        <ele>379.106</ele>
        <time>2012-06-18T14:18:33Z</time>
      </trkpt>
      <trkpt lat="43.85744" lon="5.59377">
        <ele>378.763</ele>
        <time>2012-06-18T14:19:06Z</time>
      </trkpt>
      <trkpt lat="43.85744" lon="5.59375">
        <ele>379.208</ele>
        <time>2012-06-18T14:19:07Z</time>
      </trkpt>
      <trkpt lat="43.85734" lon="5.5934">
        <ele>379.524</ele>
        <time>2012-06-18T14:19:34Z</time>
      </trkpt>
      <trkpt lat="43.85727" lon="5.59308">
        <ele>381.022</ele>
        <time>2012-06-18T14:19:59Z</time>
      </trkpt>
      <trkpt lat="43.8572" lon="5.59284">
        <ele>382.375</ele>
        <time>2012-06-18T14:20:18Z</time>
      </trkpt>
      <trkpt lat="43.85713" lon="5.5926">
        <ele>382.25</ele>
        <time>2012-06-18T14:20:38Z</time>
      </trkpt>
      <trkpt lat="43.85707" lon="5.5923">
        <ele>383.159</ele>
        <time>2012-06-18T14:21:01Z</time>
      </trkpt>
      <trkpt lat="43.85695" lon="5.59205">
        <ele>383.154</ele>
        <time>2012-06-18T14:21:22Z</time>
      </trkpt>
      <trkpt lat="43.85693" lon="5.592">
        <ele>383.28</ele>
        <time>2012-06-18T14:21:27Z</time>
      </trkpt>
      <trkpt lat="43.85686" lon="5.59186">
        <ele>383.058</ele>
        <time>2012-06-18T14:21:43Z</time>
      </trkpt>
      <trkpt lat="43.85678" lon="5.59153">
        <ele>383.007</ele>
        <time>2012-06-18T14:22:04Z</time>
      </trkpt>
      <trkpt lat="43.85659" lon="5.59129">
        <ele>383.919</ele>
        <time>2012-06-18T14:22:26Z</time>
      </trkpt>
      <trkpt lat="43.85642" lon="5.59115">
        <ele>385.211</ele>
        <time>2012-06-18T14:22:45Z</time>
      </trkpt>
      <trkpt lat="43.85628" lon="5.59121">
        <ele>388.287</ele>
        <time>2012-06-18T14:23:04Z</time>
      </trkpt>
      <trkpt lat="43.85625" lon="5.59122">
        <ele>388.107</ele>
        <time>2012-06-18T14:23:28Z</time>
      </trkpt>
      <trkpt lat="43.85624" lon="5.59106">
        <ele>388.544</ele>
        <time>2012-06-18T14:23:49Z</time>
      </trkpt>
      <trkpt lat="43.85624" lon="5.59094">
        <ele>388.461</ele>
        <time>2012-06-18T14:24:08Z</time>
      </trkpt>
      <trkpt lat="43.85617" lon="5.59074">
        <ele>388.441</ele>
        <time>2012-06-18T14:24:29Z</time>
      </trkpt>
      <trkpt lat="43.8561" lon="5.59058">
        <ele>389.611</ele>
        <time>2012-06-18T14:24:47Z</time>
      </trkpt>
      <trkpt lat="43.85598" lon="5.59053">
        <ele>391.041</ele>
        <time>2012-06-18T14:25:04Z</time>
      </trkpt>
      <trkpt lat="43.85591" lon="5.59045">
        <ele>391.782</ele>
        <time>2012-06-18T14:25:21Z</time>
      </trkpt>
      <trkpt lat="43.8559" lon="5.59045">
        <ele>392.468</ele>
        <time>2012-06-18T14:25:36Z</time>
      </trkpt>
      <trkpt lat="43.85575" lon="5.59044">
        <ele>392.256</ele>
        <time>2012-06-18T14:25:58Z</time>
      </trkpt>
      <trkpt lat="43.8558" lon="5.59069">
        <ele>392.735</ele>
        <time>2012-06-18T14:26:10Z</time>
      </trkpt>
      <trkpt lat="43.85592" lon="5.59093">
        <ele>392.303</ele>
        <time>2012-06-18T14:26:28Z</time>
      </trkpt>
      <trkpt lat="43.85595" lon="5.59106">
        <ele>391.738</ele>
        <time>2012-06-18T14:26:38Z</time>
      </trkpt>
      <trkpt lat="43.85605" lon="5.59131">
        <ele>390.209</ele>
        <time>2012-06-18T14:26:57Z</time>
      </trkpt>
      <trkpt lat="43.85611" lon="5.59168">
        <ele>389.494</ele>
        <time>2012-06-18T14:27:24Z</time>
      </trkpt>
      <trkpt lat="43.8561" lon="5.5919">
        <ele>389.562</ele>
        <time>2012-06-18T14:27:45Z</time>
      </trkpt>
      <trkpt lat="43.85616" lon="5.59185">
        <ele>389.749</ele>
        <time>2012-06-18T14:27:56Z</time>
      </trkpt>
      <trkpt lat="43.85623" lon="5.59171">
        <ele>389.685</ele>
        <time>2012-06-18T14:28:09Z</time>
      </trkpt>
      <trkpt lat="43.85636" lon="5.59184">
        <ele>388.837</ele>
        <time>2012-06-18T14:28:37Z</time>
      </trkpt>
      <trkpt lat="43.85634" lon="5.59179">
        <ele>388.992</ele>
        <time>2012-06-18T14:28:50Z</time>
      </trkpt>
      <trkpt lat="43.85626" lon="5.59174">
        <ele>389.278</ele>
        <time>2012-06-18T14:29:04Z</time>
      </trkpt>
      <trkpt lat="43.85617" lon="5.59173">
        <ele>388.972</ele>
        <time>2012-06-18T14:29:16Z</time>
      </trkpt>
      <trkpt lat="43.85627" lon="5.59169">
        <ele>388.935</ele>
        <time>2012-06-18T14:29:25Z</time>
      </trkpt>
      <trkpt lat="43.8562" lon="5.59174">
        <ele>389.335</ele>
        <time>2012-06-18T14:29:35Z</time>
      </trkpt>
      <trkpt lat="43.85624" lon="5.59167">
        <ele>389.003</ele>
        <time>2012-06-18T14:29:48Z</time>
      </trkpt>
      <trkpt lat="43.85626" lon="5.59174">
        <ele>388.869</ele>
        <time>2012-06-18T14:30:02Z</time>
      </trkpt>
      <trkpt lat="43.85629" lon="5.59181">
        <ele>389.03</ele>
        <time>2012-06-18T14:30:05Z</time>
      </trkpt>
      <trkpt lat="43.85624" lon="5.59177">
        <ele>388.614</ele>
        <time>2012-06-18T14:30:27Z</time>
      </trkpt>
      <trkpt lat="43.85623" lon="5.59166">
        <ele>388.799</ele>
        <time>2012-06-18T14:30:49Z</time>
      </trkpt>
      <trkpt lat="43.85623" lon="5.59169">
        <ele>388.44</ele>
        <time>2012-06-18T14:30:52Z</time>
      </trkpt>
      <trkpt lat="43.85627" lon="5.59176">
        <ele>388.554</ele>
        <time>2012-06-18T14:31:07Z</time>
      </trkpt>
      <trkpt lat="43.85618" lon="5.59158">
        <ele>388.668</ele>
        <time>2012-06-18T14:31:26Z</time>
      </trkpt>
      <trkpt lat="43.85612" lon="5.59135">
        <ele>388.952</ele>
        <time>2012-06-18T14:31:46Z</time>
      </trkpt>
      <trkpt lat="43.85598" lon="5.59108">
        <ele>391.704</ele>
        <time>2012-06-18T14:32:08Z</time>
      </trkpt>
      <trkpt lat="43.8559" lon="5.59087">
        <ele>392.609</ele>
        <time>2012-06-18T14:32:26Z</time>
      </trkpt>
      <trkpt lat="43.85589" lon="5.59086">
        <ele>392.921</ele>
        <time>2012-06-18T14:32:45Z</time>
      </trkpt>
      <trkpt lat="43.85574" lon="5.59077">
        <ele>392.468</ele>
        <time>2012-06-18T14:32:58Z</time>
      </trkpt>
      <trkpt lat="43.85565" lon="5.59082">
        <ele>395.091</ele>
        <time>2012-06-18T14:33:08Z</time>
      </trkpt>
      <trkpt lat="43.85562" lon="5.59083">
        <ele>395.408</ele>
        <time>2012-06-18T14:33:12Z</time>
      </trkpt>
      <trkpt lat="43.85584" lon="5.59077">
        <ele>395.584</ele>
        <time>2012-06-18T14:33:28Z</time>
      </trkpt>
      <trkpt lat="43.85586" lon="5.59078">
        <ele>396.59</ele>
        <time>2012-06-18T14:33:40Z</time>
      </trkpt>
      <trkpt lat="43.85586" lon="5.59076">
        <ele>397.594</ele>
        <time>2012-06-18T14:33:59Z</time>
      </trkpt>
      <trkpt lat="43.85588" lon="5.59076">
        <ele>398.276</ele>
        <time>2012-06-18T14:34:13Z</time>
      </trkpt>
      <trkpt lat="43.85585" lon="5.59076">
        <ele>398.997</ele>
        <time>2012-06-18T14:34:31Z</time>
      </trkpt>
      <trkpt lat="43.85588" lon="5.59076">
        <ele>399.492</ele>
        <time>2012-06-18T14:34:57Z</time>
      </trkpt>
      <trkpt lat="43.85588" lon="5.59076">
        <ele>400.231</ele>
        <time>2012-06-18T14:35:25Z</time>
      </trkpt>
      <trkpt lat="43.85588" lon="5.59076">
        <ele>401.288</ele>
        <time>2012-06-18T14:35:54Z</time>
      </trkpt>
      <trkpt lat="43.85589" lon="5.59072">
        <ele>400.594</ele>
        <time>2012-06-18T14:36:34Z</time>
      </trkpt>
      <trkpt lat="43.8559" lon="5.59075">
        <ele>399.09</ele>
        <time>2012-06-18T14:36:57Z</time>
      </trkpt>
      <trkpt lat="43.85589" lon="5.5907">
        <ele>396.561</ele>
        <time>2012-06-18T14:37:15Z</time>
      </trkpt>
      <trkpt lat="43.85589" lon="5.59078">
        <ele>396.102</ele>
        <time>2012-06-18T14:37:27Z</time>
      </trkpt>
    </trkseg>
  </trk>
</gpx>